Pagrindinis puslapis
METAR-TAF:

METAR-TAF

Oro uostai :

Arvidsjaur, Švedija

platuma: 65-35-25N, ilguma: 019-16-55E, Aukštis: 379 m

Dabartinis oras

Ataskaita buvo paskelbta 28 minutes, ne 12:50 UTC
Vėjas 12 kt iš Šiaurės/Šiaurės Vakarų, svyruoja nuo Šiaurės Vakarų ir Šiaurės
Temperatūra -1°C
Drėgmė 28%
Slėgis 1016 hPa
Matomumas 10 km arba daugiau

METAR: ESNX 201250Z AUTO 33012KT 310V010 9999 FEW140/// M01/M17 Q1016

Laikas: 15:18 (13:18 UTC)

Prognozė

Ataskaita buvo paskelbta 22 valandos ir 48 minutes, ne 14:30 UTC
Prognozė galioja nuo 19 metu 15 UTC su 19 metu 19 UTC
Vėjas 3 kt nuo kintamojo kryptimis
Matomumas 10 km arba daugiau
nėra debesų žemiau 1500 m ir nėra kamuolinių lietaus debesų

TAF: ESNX 191430Z 1915/1919 VRB03KT CAVOK

Orai ataskaitas ir orų prognozės (METAR, TAF).

turimą stotys yra geltonos ir raudonos taškus žemėlapyje.

Perkelti pele per norėdami pamatyti stoties vardą.

Tada spustelėkite, norėdami matyti oro stebėjimo ir prognozės.

Norėdami pakeisti žemėlapį: spustelėkite ant žalios mygtukų su juodo kryžiaus žemyn,; žalią mygtuką su brūkšneliu, jei norite nutolinti; arba žalių rodyklių gretimoms žemėlapius.


METAR-TAF: